createdAt,value
2022-10-16T00:03:33.377Z,15.13
2022-10-16T00:06:44.921Z,15.82
2022-10-16T00:07:46.668Z,15.35
2022-10-16T00:08:49.240Z,15.77
2022-10-16T00:09:56.492Z,15.60
2022-10-16T00:11:08.189Z,15.70
2022-10-16T00:12:11.193Z,16.55
2022-10-16T00:13:13.886Z,15.95
2022-10-16T00:14:16.653Z,16.42
2022-10-16T00:15:18.963Z,15.88
2022-10-16T00:16:20.882Z,16.08
2022-10-16T00:17:24.640Z,16.27
2022-10-16T00:18:26.967Z,16.00
2022-10-16T00:19:29.148Z,15.63
2022-10-16T00:20:32.459Z,16.63
2022-10-16T00:21:34.782Z,16.67
2022-10-16T00:22:45.343Z,15.98
2022-10-16T00:23:51.911Z,16.30
2022-10-16T00:24:54.169Z,15.52
2022-10-16T00:26:03.334Z,15.38
2022-10-16T00:27:16.242Z,16.05
2022-10-16T00:28:20.760Z,15.60
2022-10-16T00:29:23.290Z,16.05
2022-10-16T00:30:25.614Z,15.90
2022-10-16T00:31:27.964Z,16.40
2022-10-16T00:32:31.693Z,16.10
2022-10-16T00:33:37.686Z,17.10
2022-10-16T00:34:42.310Z,17.05
2022-10-16T00:35:45.665Z,16.48
2022-10-16T00:36:47.411Z,16.20
2022-10-16T00:37:59.309Z,16.35
2022-10-16T00:41:37.473Z,15.77
2022-10-16T00:42:40.004Z,15.73
2022-10-16T00:43:51.414Z,17.05
2022-10-16T00:44:58.973Z,15.85
2022-10-16T00:46:17.003Z,16.92
2022-10-16T00:47:49.211Z,15.82
2022-10-16T00:49:19.672Z,17.17
2022-10-16T00:50:31.656Z,17.13
2022-10-16T00:51:57.291Z,16.67
2022-10-16T00:53:08.851Z,16.95
2022-10-16T00:54:23.251Z,16.70
2022-10-16T00:55:30.010Z,17.63
2022-10-16T00:56:37.249Z,16.88
2022-10-16T00:57:40.817Z,16.52
2022-10-16T00:58:51.854Z,16.35
2022-10-16T00:59:55.704Z,16.70
2022-10-16T01:01:06.572Z,16.52
2022-10-16T01:02:21.265Z,17.15
2022-10-16T01:03:35.750Z,18.08
2022-10-16T01:04:49.154Z,16.45
2022-10-16T01:06:26.481Z,17.23
2022-10-16T01:07:55.043Z,16.70
2022-10-16T01:09:17.923Z,16.45
2022-10-16T01:10:46.755Z,16.92
2022-10-16T01:12:08.522Z,17.58
2022-10-16T01:13:19.517Z,16.77
2022-10-16T01:14:37.964Z,17.52
2022-10-16T01:15:55.365Z,17.10
2022-10-16T01:17:31.088Z,17.15
2022-10-16T01:19:02.481Z,16.65
2022-10-16T01:20:30.022Z,15.95
2022-10-16T01:21:45.292Z,16.50
2022-10-16T01:23:10.863Z,17.65
2022-10-16T01:24:58.433Z,17.27
2022-10-16T01:26:38.790Z,16.30
2022-10-16T01:27:45.347Z,17.60
2022-10-16T01:29:16.094Z,16.35
2022-10-16T01:30:32.526Z,16.33
2022-10-16T01:33:07.192Z,16.92
2022-10-16T01:34:27.201Z,17.23
2022-10-16T01:35:43.921Z,17.48
2022-10-16T01:37:04.391Z,17.20
2022-10-16T01:38:27.108Z,18.20
2022-10-16T01:39:33.695Z,17.65
2022-10-16T01:40:39.296Z,18.80
2022-10-16T01:41:47.886Z,18.00
2022-10-16T01:42:55.441Z,18.80
2022-10-16T01:44:11.084Z,18.52
2022-10-16T01:45:16.296Z,17.90
2022-10-16T01:46:23.322Z,18.20
2022-10-16T01:47:28.067Z,19.05
2022-10-16T01:48:34.844Z,19.15
2022-10-16T01:49:43.294Z,18.67
2022-10-16T01:50:57.988Z,19.15
2022-10-16T01:52:04.311Z,19.15
2022-10-16T01:53:08.430Z,18.73
2022-10-16T01:54:15.715Z,19.95
2022-10-16T01:55:37.128Z,20.50
2022-10-16T01:57:48.497Z,19.90
2022-10-16T01:59:10.257Z,19.85
2022-10-16T02:00:23.843Z,20.08
2022-10-16T02:01:31.539Z,19.88
2022-10-16T02:02:38.383Z,20.58
2022-10-16T02:03:43.870Z,20.45
2022-10-16T02:04:54.913Z,19.88
2022-10-16T02:05:59.561Z,21.40
2022-10-16T02:07:01.949Z,21.00
2022-10-16T02:08:05.634Z,22.38
2022-10-16T02:09:07.974Z,20.63
2022-10-16T02:10:10.792Z,20.77
2022-10-16T02:11:14.690Z,21.63
2022-10-16T02:12:30.699Z,21.20
2022-10-16T02:13:41.803Z,21.77
2022-10-16T02:15:46.053Z,20.65
2022-10-16T02:16:49.489Z,22.88
2022-10-16T02:17:51.714Z,21.70
2022-10-16T02:18:53.591Z,24.33
2022-10-16T02:19:58.339Z,22.38
2022-10-16T02:21:17.376Z,22.55
2022-10-16T02:22:37.353Z,22.25
2022-10-16T02:23:45.651Z,22.10
2022-10-16T02:24:58.878Z,21.70
2022-10-16T02:26:05.031Z,22.08
2022-10-16T02:27:37.927Z,22.45
2022-10-16T02:28:46.991Z,23.20
2022-10-16T02:30:09.152Z,22.10
2022-10-16T02:31:14.201Z,22.40
2022-10-16T02:32:21.102Z,22.42
2022-10-16T02:33:24.490Z,22.77
2022-10-16T02:34:27.561Z,22.98
2022-10-16T02:35:31.635Z,23.52
2022-10-16T02:36:36.650Z,23.23
2022-10-16T02:37:41.882Z,22.98
2022-10-16T02:38:43.997Z,23.58
2022-10-16T02:39:46.134Z,23.45
2022-10-16T02:40:48.518Z,23.80
2022-10-16T02:41:53.158Z,22.48
2022-10-16T02:43:13.893Z,23.85
2022-10-16T02:44:16.810Z,22.77
2022-10-16T02:45:19.312Z,23.20
2022-10-16T02:46:21.366Z,24.13
2022-10-16T02:47:24.044Z,22.65
2022-10-16T02:48:25.953Z,24.08
2022-10-16T02:49:30.941Z,24.65
2022-10-16T02:50:33.191Z,24.05
2022-10-16T02:51:35.367Z,23.77
2022-10-16T02:52:37.380Z,24.90
2022-10-16T02:53:39.348Z,24.85
2022-10-16T02:54:43.978Z,24.33
2022-10-16T02:55:46.395Z,24.48
2022-10-16T02:56:48.399Z,24.17
2022-10-16T02:57:50.283Z,23.30
2022-10-16T02:58:52.242Z,24.13
2022-10-16T02:59:54.365Z,25.13
2022-10-16T03:00:57.562Z,25.00
2022-10-16T03:02:02.910Z,24.80
2022-10-16T03:03:04.864Z,24.77
2022-10-16T03:04:38.709Z,24.20
2022-10-16T03:07:52.331Z,24.38
2022-10-16T03:09:07.164Z,24.73
2022-10-16T03:10:44.420Z,25.25
2022-10-16T03:11:50.167Z,24.27
2022-10-16T03:12:54.828Z,25.00
2022-10-16T03:14:48.747Z,24.63
2022-10-16T03:15:53.495Z,25.00
2022-10-16T03:17:07.677Z,26.25
2022-10-16T03:18:15.121Z,25.45
2022-10-16T03:19:34.219Z,24.50
2022-10-16T03:20:45.194Z,25.33
2022-10-16T03:21:57.785Z,26.17
2022-10-16T03:23:05.527Z,25.38
2022-10-16T03:24:08.602Z,25.80
2022-10-16T03:25:19.427Z,26.40
2022-10-16T03:26:27.228Z,26.65
2022-10-16T03:27:30.327Z,25.88
2022-10-16T03:28:36.454Z,25.63
2022-10-16T03:29:45.509Z,27.00
2022-10-16T03:30:47.861Z,26.98
2022-10-16T03:31:55.824Z,26.33
2022-10-16T03:33:00.194Z,26.80
2022-10-16T03:34:27.283Z,27.08
2022-10-16T03:39:04.041Z,26.35
2022-10-16T03:40:20.990Z,25.25
2022-10-16T03:41:37.346Z,26.10
2022-10-16T03:42:47.768Z,27.02
2022-10-16T03:46:39.600Z,26.00
2022-10-16T03:48:15.698Z,25.45
2022-10-16T03:50:51.404Z,27.95
2022-10-16T03:52:01.145Z,27.60
2022-10-16T03:53:04.950Z,27.85
2022-10-16T03:54:10.160Z,28.20
2022-10-16T03:55:46.879Z,27.55
2022-10-16T03:59:42.909Z,27.05
2022-10-16T04:00:46.195Z,26.52
2022-10-16T04:01:48.816Z,27.38
2022-10-16T04:02:50.924Z,26.80
2022-10-16T04:03:53.241Z,27.00
2022-10-16T04:04:55.414Z,27.33
2022-10-16T04:06:00.095Z,27.95
2022-10-16T04:07:03.458Z,27.92
2022-10-16T04:08:05.395Z,28.38
2022-10-16T04:09:08.763Z,26.65
2022-10-16T04:10:11.643Z,27.27
2022-10-16T04:11:14.273Z,27.92
2022-10-16T04:12:23.718Z,27.75
2022-10-16T04:13:29.651Z,27.02
2022-10-16T04:14:37.804Z,26.67
2022-10-16T04:15:43.455Z,26.75
2022-10-16T04:16:48.601Z,27.23
2022-10-16T04:17:52.762Z,27.60
2022-10-16T04:18:58.409Z,26.52
2022-10-16T04:20:04.188Z,26.30
2022-10-16T04:21:14.011Z,26.25
2022-10-16T04:22:21.959Z,26.60
2022-10-16T04:23:27.784Z,27.60
2022-10-16T04:24:34.191Z,27.13
2022-10-16T04:25:36.548Z,27.67
2022-10-16T04:26:38.700Z,26.50
2022-10-16T04:27:45.983Z,27.65
2022-10-16T04:28:51.374Z,27.42
2022-10-16T04:29:53.257Z,27.63
2022-10-16T04:30:58.643Z,27.83
2022-10-16T04:32:00.653Z,26.80
2022-10-16T04:33:02.989Z,27.27
2022-10-16T04:34:08.873Z,26.58
2022-10-16T04:35:11.513Z,27.50
2022-10-16T04:36:13.982Z,27.50
2022-10-16T04:37:16.241Z,27.17
2022-10-16T04:38:23.760Z,27.90
2022-10-16T04:39:25.537Z,27.05
2022-10-16T04:40:30.374Z,27.38
2022-10-16T04:41:34.978Z,26.17
2022-10-16T04:42:41.423Z,27.30
2022-10-16T04:43:44.769Z,27.48
2022-10-16T04:44:47.362Z,26.95
2022-10-16T04:45:52.141Z,26.83
2022-10-16T04:46:59.007Z,27.63
2022-10-16T04:48:02.063Z,26.90
2022-10-16T04:49:05.918Z,27.13
2022-10-16T04:50:08.927Z,26.83
2022-10-16T04:51:11.873Z,27.27
2022-10-16T04:52:16.600Z,27.73
2022-10-16T04:53:19.364Z,27.27
2022-10-16T04:54:21.320Z,27.48
2022-10-16T04:55:25.935Z,28.55
2022-10-16T04:56:28.394Z,27.38
2022-10-16T04:57:35.673Z,28.67
2022-10-16T04:58:38.542Z,28.00
2022-10-16T04:59:41.278Z,28.55
2022-10-16T05:00:43.912Z,28.65
2022-10-16T05:01:48.893Z,27.88
2022-10-16T05:02:56.331Z,28.83
2022-10-16T05:03:59.317Z,28.95
2022-10-16T05:05:06.011Z,29.80
2022-10-16T05:06:08.622Z,28.85
2022-10-16T05:07:12.276Z,29.85
2022-10-16T05:08:16.771Z,28.88
2022-10-16T05:09:23.674Z,29.40
2022-10-16T05:10:36.476Z,28.95
2022-10-16T05:11:51.577Z,29.70
2022-10-16T05:13:00.501Z,29.85
2022-10-16T05:14:36.740Z,30.10
2022-10-16T05:24:08.589Z,30.02
2022-10-16T05:25:20.310Z,31.48
2022-10-16T05:26:29.490Z,31.38
2022-10-16T05:27:36.159Z,30.98
2022-10-16T05:31:33.843Z,31.05
2022-10-16T05:32:44.803Z,31.60
2022-10-16T05:33:47.432Z,32.92
2022-10-16T05:34:49.651Z,32.33
2022-10-16T05:35:51.922Z,32.58
2022-10-16T05:36:54.037Z,34.50
2022-10-16T05:37:57.522Z,34.45
2022-10-16T05:39:04.641Z,33.33
2022-10-16T05:40:09.026Z,34.05
2022-10-16T05:41:11.809Z,35.05
2022-10-16T05:42:15.757Z,34.85
2022-10-16T05:43:19.772Z,35.00
2022-10-16T05:44:24.793Z,34.47
2022-10-16T05:45:26.748Z,34.60
2022-10-16T05:46:29.098Z,35.33
2022-10-16T05:47:31.850Z,36.60
2022-10-16T05:48:34.326Z,35.30
2022-10-16T05:50:20.327Z,35.60
2022-10-16T05:51:22.965Z,33.60
2022-10-16T05:52:25.780Z,35.55
2022-10-16T05:53:32.918Z,37.28
2022-10-16T05:54:36.854Z,36.67
2022-10-16T05:55:39.473Z,36.20
2022-10-16T05:56:41.984Z,35.75
2022-10-16T05:57:45.169Z,37.20
2022-10-16T05:58:55.556Z,36.42
2022-10-16T05:59:57.948Z,35.25
2022-10-16T06:01:03.965Z,36.75
2022-10-16T06:02:06.473Z,35.83
2022-10-16T06:03:11.963Z,36.53
2022-10-16T06:04:16.961Z,34.42
2022-10-16T06:05:19.165Z,35.50
2022-10-16T06:06:25.601Z,37.13
2022-10-16T06:07:27.933Z,36.55
2022-10-16T06:08:30.353Z,36.78
2022-10-16T06:09:32.509Z,37.38
2022-10-16T06:10:35.772Z,34.95
2022-10-16T06:11:38.077Z,36.13
2022-10-16T06:12:40.748Z,35.13
2022-10-16T06:13:43.698Z,37.50
2022-10-16T06:14:48.422Z,35.72
2022-10-16T06:15:50.411Z,36.83
2022-10-16T06:16:56.085Z,35.92
2022-10-16T06:18:00.855Z,35.60
2022-10-16T06:19:07.632Z,35.63
2022-10-16T06:20:11.741Z,36.10
2022-10-16T06:21:42.524Z,35.33
2022-10-16T06:22:50.414Z,35.20
2022-10-16T06:23:54.423Z,35.88
2022-10-16T06:28:21.655Z,35.50
2022-10-16T06:32:03.114Z,32.45
2022-10-16T06:36:37.160Z,32.15
2022-10-16T06:37:50.065Z,33.78
2022-10-16T06:39:05.076Z,33.88
2022-10-16T06:40:15.441Z,34.47
2022-10-16T06:41:20.515Z,35.03
2022-10-16T06:42:32.934Z,33.83
2022-10-16T06:43:38.152Z,35.00
2022-10-16T06:44:40.001Z,33.95
2022-10-16T06:45:55.340Z,35.03
2022-10-16T06:46:58.484Z,33.33
2022-10-16T06:48:00.676Z,34.78
2022-10-16T06:49:03.849Z,34.83
2022-10-16T06:50:07.899Z,35.28
2022-10-16T06:51:15.300Z,36.17
2022-10-16T06:52:17.497Z,36.97
2022-10-16T06:53:19.265Z,36.00
2022-10-16T06:54:21.243Z,35.67
2022-10-16T06:55:23.343Z,36.65
2022-10-16T06:56:27.664Z,35.40
2022-10-16T06:57:29.727Z,36.10
2022-10-16T06:58:31.543Z,37.22
2022-10-16T06:59:33.468Z,34.50
2022-10-16T07:00:35.275Z,36.15
2022-10-16T07:01:37.350Z,36.55
2022-10-16T07:02:39.248Z,36.60
2022-10-16T07:03:43.009Z,36.67
2022-10-16T07:04:44.928Z,37.08
2022-10-16T07:05:46.955Z,36.67
2022-10-16T07:06:48.858Z,36.72
2022-10-16T07:07:50.848Z,36.97
2022-10-16T07:08:52.774Z,38.72
2022-10-16T07:09:54.796Z,37.78
2022-10-16T07:11:06.795Z,37.25
2022-10-16T07:12:13.223Z,37.85
2022-10-16T07:13:19.733Z,36.42
2022-10-16T07:14:22.404Z,36.63
2022-10-16T07:15:28.990Z,36.55
2022-10-16T07:16:32.886Z,37.70
2022-10-16T07:17:35.219Z,36.92
2022-10-16T07:18:38.039Z,37.38
2022-10-16T07:19:39.744Z,37.72
2022-10-16T07:20:41.609Z,37.65
2022-10-16T07:21:43.734Z,38.05
2022-10-16T07:22:45.528Z,36.97
2022-10-16T07:23:54.170Z,38.00
2022-10-16T07:24:55.853Z,36.47
2022-10-16T07:25:57.683Z,37.65
2022-10-16T07:27:00.090Z,38.10
2022-10-16T07:28:01.942Z,36.45
2022-10-16T07:29:04.649Z,35.67
2022-10-16T07:30:09.122Z,37.33
2022-10-16T07:31:14.535Z,37.25
2022-10-16T07:32:16.581Z,36.33
2022-10-16T07:33:18.612Z,37.17
2022-10-16T07:34:22.544Z,38.00
2022-10-16T07:35:24.809Z,38.70
2022-10-16T07:36:26.764Z,36.78
2022-10-16T07:37:28.715Z,38.58
2022-10-16T07:38:30.853Z,38.33
2022-10-16T07:39:32.746Z,37.75
2022-10-16T07:40:34.423Z,38.08
2022-10-16T07:41:37.796Z,37.85
2022-10-16T07:42:40.101Z,38.15
2022-10-16T07:43:47.201Z,37.65
2022-10-16T07:44:49.077Z,37.72
2022-10-16T07:46:54.669Z,38.03
2022-10-16T07:47:56.824Z,38.72
2022-10-16T07:48:58.718Z,37.65
2022-10-16T07:50:01.808Z,37.70
2022-10-16T07:51:06.105Z,38.13
2022-10-16T07:52:07.911Z,36.53
2022-10-16T07:53:10.005Z,36.83
2022-10-16T07:54:11.906Z,37.13
2022-10-16T07:55:13.673Z,36.65
2022-10-16T07:56:17.331Z,37.15
2022-10-16T07:57:20.920Z,38.08
2022-10-16T07:58:22.775Z,37.33
2022-10-16T07:59:24.589Z,36.78
2022-10-16T08:00:26.411Z,37.55
2022-10-16T08:01:28.493Z,37.67
2022-10-16T08:02:30.337Z,36.75
2022-10-16T08:03:32.634Z,36.38
2022-10-16T08:04:34.577Z,35.65
2022-10-16T08:05:36.412Z,36.90
2022-10-16T08:06:40.100Z,35.08
2022-10-16T08:07:41.915Z,36.10
2022-10-16T08:08:44.180Z,36.90
2022-10-16T08:09:49.749Z,37.33
2022-10-16T08:10:51.660Z,36.25
2022-10-16T08:11:53.734Z,36.30
2022-10-16T08:12:55.541Z,37.40
2022-10-16T08:13:57.258Z,36.08
2022-10-16T08:14:59.313Z,35.80
2022-10-16T08:16:01.274Z,36.70
2022-10-16T08:17:03.579Z,37.55
2022-10-16T08:18:06.613Z,35.53
2022-10-16T08:19:08.511Z,36.63
2022-10-16T08:20:11.135Z,36.15
2022-10-16T08:21:20.157Z,35.95
2022-10-16T08:22:23.266Z,35.60
2022-10-16T08:23:27.079Z,36.83
2022-10-16T08:24:31.914Z,36.97
2022-10-16T08:25:37.577Z,36.20
2022-10-16T08:26:39.294Z,35.78
2022-10-16T08:27:40.991Z,35.33
2022-10-16T08:28:43.172Z,36.70
2022-10-16T08:29:44.889Z,38.70
2022-10-16T08:30:46.973Z,38.50
2022-10-16T08:31:48.642Z,37.78
2022-10-16T08:32:51.010Z,36.47
2022-10-16T08:33:53.611Z,38.75
2022-10-16T08:34:55.642Z,37.97
2022-10-16T08:35:57.317Z,38.08
2022-10-16T08:36:59.172Z,35.67
2022-10-16T08:38:01.151Z,37.03
2022-10-16T08:39:03.227Z,37.35
2022-10-16T08:40:07.349Z,39.70
2022-10-16T08:41:14.908Z,37.90
2022-10-16T08:42:37.498Z,40.05
2022-10-16T08:44:08.485Z,37.65
2022-10-16T08:45:28.688Z,38.80
2022-10-16T08:46:36.155Z,37.95
2022-10-16T08:47:53.344Z,38.13
2022-10-16T08:48:58.016Z,37.65
2022-10-16T08:50:09.251Z,38.33
2022-10-16T08:51:25.343Z,38.25
2022-10-16T08:52:34.857Z,38.25
2022-10-16T08:53:49.910Z,38.22
2022-10-16T08:54:56.396Z,37.60
2022-10-16T08:55:59.907Z,38.08
2022-10-16T08:57:21.392Z,38.67
2022-10-16T08:58:31.862Z,39.30
2022-10-16T08:59:33.732Z,39.08
2022-10-16T09:00:35.675Z,39.25
2022-10-16T09:01:41.988Z,39.35
2022-10-16T09:03:06.528Z,37.80
2022-10-16T09:04:43.917Z,39.13
2022-10-16T09:06:04.010Z,37.13
2022-10-16T09:07:19.546Z,37.80
2022-10-16T09:08:44.896Z,37.75
2022-10-16T09:10:03.570Z,37.63
2022-10-16T09:11:25.896Z,37.58
2022-10-16T09:12:32.960Z,36.83
2022-10-16T09:13:57.362Z,37.78
2022-10-16T09:15:40.781Z,36.97
2022-10-16T09:16:51.440Z,37.08
2022-10-16T09:18:07.177Z,36.33
2022-10-16T09:19:16.341Z,37.88
2022-10-16T09:20:50.148Z,38.15
2022-10-16T09:21:53.891Z,38.30
2022-10-16T09:23:04.231Z,37.85
2022-10-16T09:24:14.525Z,38.38
2022-10-16T09:25:22.705Z,38.67
2022-10-16T09:27:32.444Z,38.35
2022-10-16T09:28:34.618Z,38.45
2022-10-16T09:29:36.507Z,36.22
2022-10-16T09:30:40.498Z,38.75
2022-10-16T09:31:42.943Z,38.30
2022-10-16T09:32:46.932Z,38.47
2022-10-16T09:33:54.349Z,37.83
2022-10-16T09:34:58.613Z,38.55
2022-10-16T09:36:00.681Z,38.63
2022-10-16T09:37:06.672Z,38.38
2022-10-16T09:38:09.335Z,38.50
2022-10-16T09:39:15.322Z,38.45
2022-10-16T09:40:33.481Z,38.33
2022-10-16T09:41:41.928Z,38.40
2022-10-16T09:42:43.783Z,37.90
2022-10-16T09:44:02.928Z,39.22
2022-10-16T09:45:05.557Z,37.45
2022-10-16T09:46:10.419Z,38.97
2022-10-16T09:47:30.591Z,39.95
2022-10-16T09:48:45.531Z,38.88
2022-10-16T09:50:21.222Z,38.38
2022-10-16T09:51:32.886Z,37.53
2022-10-16T09:52:35.191Z,39.42
2022-10-16T09:53:43.972Z,38.50
2022-10-16T09:54:59.940Z,39.78
2022-10-16T09:56:01.887Z,37.00
2022-10-16T09:57:08.887Z,37.45
2022-10-16T09:58:15.188Z,38.83
2022-10-16T09:59:22.129Z,39.33
2022-10-16T10:00:25.452Z,40.97
2022-10-16T10:01:49.707Z,38.22
2022-10-16T10:02:52.163Z,38.25
2022-10-16T10:04:02.114Z,37.95
2022-10-16T10:05:06.999Z,36.97
2022-10-16T10:06:26.697Z,40.65
2022-10-16T10:07:39.198Z,37.90
2022-10-16T10:08:41.160Z,38.70
2022-10-16T10:09:46.332Z,38.20
2022-10-16T10:10:50.108Z,38.70
2022-10-16T10:12:04.213Z,37.67
2022-10-16T10:13:17.850Z,37.95
2022-10-16T10:14:21.535Z,37.28
2022-10-16T10:15:25.180Z,38.53
2022-10-16T10:16:27.012Z,36.70
2022-10-16T10:17:29.620Z,37.80
2022-10-16T10:18:33.059Z,38.13
2022-10-16T10:19:50.109Z,37.22
2022-10-16T10:22:31.379Z,36.28
2022-10-16T10:23:33.375Z,37.72
2022-10-16T10:24:35.406Z,37.80
2022-10-16T10:25:49.715Z,36.05
2022-10-16T10:27:03.596Z,36.42
2022-10-16T10:28:31.293Z,35.05
2022-10-16T10:29:43.372Z,36.20
2022-10-16T10:31:18.154Z,37.38
2022-10-16T10:32:44.371Z,36.50
2022-10-16T10:34:20.158Z,36.13
2022-10-16T10:35:50.260Z,34.33
2022-10-16T10:37:07.376Z,35.83
2022-10-16T10:38:40.558Z,35.97
2022-10-16T10:40:04.102Z,36.42
2022-10-16T10:41:31.461Z,35.17
2022-10-16T10:43:10.144Z,36.42
2022-10-16T10:44:42.141Z,36.17
2022-10-16T10:45:48.174Z,34.58
2022-10-16T10:47:01.555Z,35.05
2022-10-16T10:48:22.456Z,35.95
2022-10-16T10:49:37.683Z,36.30
2022-10-16T10:51:07.372Z,35.30
2022-10-16T10:52:28.214Z,34.05
2022-10-16T10:53:53.201Z,35.20
2022-10-16T10:55:12.323Z,34.90
2022-10-16T10:56:32.630Z,35.20
2022-10-16T10:57:43.752Z,34.78
2022-10-16T10:59:59.080Z,33.05
2022-10-16T11:01:21.497Z,33.97
2022-10-16T11:02:33.197Z,33.63
2022-10-16T11:04:12.356Z,32.63
2022-10-16T11:05:37.696Z,31.60
2022-10-16T11:07:06.082Z,33.30
2022-10-16T11:08:27.096Z,33.97
2022-10-16T11:09:43.178Z,34.13
2022-10-16T11:10:59.731Z,33.65
2022-10-16T11:12:21.799Z,34.85
2022-10-16T11:13:31.886Z,33.75
2022-10-16T11:14:41.972Z,34.03
2022-10-16T11:17:05.166Z,33.97
2022-10-16T11:18:17.265Z,33.30
2022-10-16T11:19:18.949Z,32.70
2022-10-16T11:20:41.175Z,33.63
2022-10-16T11:21:55.391Z,32.65
2022-10-16T11:23:14.396Z,32.42
2022-10-16T11:24:23.208Z,32.70
2022-10-16T11:25:29.186Z,32.65
2022-10-16T11:26:37.196Z,33.35
2022-10-16T11:27:57.050Z,32.60
2022-10-16T11:29:00.757Z,30.90
2022-10-16T11:30:09.978Z,34.28
2022-10-16T11:31:18.900Z,33.53
2022-10-16T11:32:40.231Z,33.53
2022-10-16T11:35:20.739Z,34.00
2022-10-16T11:36:37.768Z,33.30
2022-10-16T11:37:44.652Z,32.92
2022-10-16T11:38:56.328Z,32.88
2022-10-16T11:40:06.732Z,34.50
2022-10-16T11:41:25.962Z,34.67
2022-10-16T11:42:38.153Z,32.03
2022-10-16T11:43:44.179Z,32.63
2022-10-16T11:45:03.774Z,32.90
2022-10-16T11:46:20.269Z,32.38
2022-10-16T11:49:32.380Z,33.40
2022-10-16T11:50:49.869Z,33.90
2022-10-16T11:52:01.997Z,35.15
2022-10-16T11:53:39.395Z,34.13
2022-10-16T11:54:55.884Z,33.75
2022-10-16T11:55:57.723Z,33.95
2022-10-16T11:57:05.130Z,34.83
2022-10-16T11:58:34.467Z,34.88
2022-10-16T11:59:52.394Z,33.53
2022-10-16T12:01:21.992Z,35.60
2022-10-16T12:02:48.510Z,34.47
2022-10-16T12:04:14.577Z,33.00
2022-10-16T12:05:32.524Z,34.70
2022-10-16T12:07:06.091Z,34.33
2022-10-16T12:08:14.429Z,33.38
2022-10-16T12:09:33.764Z,32.70
2022-10-16T12:11:41.323Z,33.60
2022-10-16T12:12:43.182Z,34.60
2022-10-16T12:13:45.096Z,33.45
2022-10-16T12:15:11.170Z,33.40
2022-10-16T12:16:29.422Z,32.28
2022-10-16T12:17:39.534Z,32.08
2022-10-16T12:18:43.025Z,30.95
2022-10-16T12:19:45.208Z,32.20
2022-10-16T12:21:02.545Z,32.78
2022-10-16T12:22:05.275Z,31.05
2022-10-16T12:23:08.080Z,30.70
2022-10-16T12:24:34.152Z,30.77
2022-10-16T12:25:38.765Z,30.58
2022-10-16T12:26:45.569Z,31.02
2022-10-16T12:27:56.550Z,30.73
2022-10-16T12:29:13.653Z,30.60
2022-10-16T12:30:24.691Z,29.23
2022-10-16T12:31:49.555Z,32.10
2022-10-16T12:33:23.911Z,29.35
2022-10-16T12:34:43.759Z,29.20
2022-10-16T12:35:46.654Z,28.70
2022-10-16T12:36:49.010Z,30.23
2022-10-16T12:37:52.519Z,29.52
2022-10-16T12:38:54.890Z,28.85
2022-10-16T12:39:58.663Z,29.58
2022-10-16T12:41:13.355Z,28.42
2022-10-16T12:42:27.252Z,27.77
2022-10-16T12:43:45.631Z,28.85
2022-10-16T12:44:47.724Z,28.80
2022-10-16T12:46:01.371Z,28.17
2022-10-16T12:47:03.784Z,28.75
2022-10-16T12:48:20.808Z,28.30
2022-10-16T12:49:37.994Z,26.20
2022-10-16T12:50:42.053Z,26.55
2022-10-16T12:51:44.299Z,28.98
2022-10-16T12:52:46.246Z,29.10
2022-10-16T12:53:58.728Z,29.50
2022-10-16T12:55:01.940Z,28.50
2022-10-16T12:56:25.320Z,26.90
2022-10-16T12:57:42.216Z,28.27
2022-10-16T12:59:02.788Z,27.20
2022-10-16T13:00:46.605Z,27.58
2022-10-16T13:02:07.777Z,28.20
2022-10-16T13:03:21.923Z,29.27
2022-10-16T13:04:41.912Z,28.08
2022-10-16T13:06:22.007Z,28.70
2022-10-16T13:07:36.216Z,27.70
2022-10-16T13:08:57.224Z,28.13
2022-10-16T13:10:16.184Z,28.15
2022-10-16T13:11:48.573Z,27.02
2022-10-16T13:13:23.439Z,27.38
2022-10-16T13:14:56.195Z,27.58
2022-10-16T13:16:14.942Z,27.40
2022-10-16T13:17:57.397Z,27.20
2022-10-16T13:19:29.802Z,27.13
2022-10-16T13:21:17.927Z,26.38
2022-10-16T13:22:48.204Z,26.63
2022-10-16T13:24:13.995Z,26.25
2022-10-16T13:25:49.501Z,25.50
2022-10-16T13:27:09.512Z,26.42
2022-10-16T13:28:13.777Z,28.85
2022-10-16T13:29:16.682Z,28.05
2022-10-16T13:30:32.908Z,28.25
2022-10-16T13:31:35.409Z,31.55
2022-10-16T13:32:37.641Z,29.10
2022-10-16T13:33:42.081Z,29.52
2022-10-16T13:34:49.799Z,28.83
2022-10-16T13:35:56.595Z,28.45
2022-10-16T13:36:58.558Z,29.65
2022-10-16T13:38:14.917Z,30.45
2022-10-16T13:39:26.177Z,29.73
2022-10-16T13:40:27.881Z,29.48
2022-10-16T13:41:29.763Z,29.45
2022-10-16T13:42:31.763Z,30.98
2022-10-16T13:43:41.195Z,30.30
2022-10-16T13:44:52.260Z,30.35
2022-10-16T13:45:59.371Z,29.88
2022-10-16T13:47:02.535Z,30.35
2022-10-16T13:48:13.328Z,30.13
2022-10-16T13:49:21.093Z,29.17
2022-10-16T13:50:22.949Z,30.88
2022-10-16T13:51:24.761Z,30.50
2022-10-16T13:52:26.917Z,32.22
2022-10-16T13:53:32.597Z,30.73
2022-10-16T13:54:34.344Z,30.05
2022-10-16T13:55:36.252Z,30.83
2022-10-16T13:56:41.278Z,31.90
2022-10-16T13:57:43.794Z,32.28
2022-10-16T13:58:46.158Z,31.13
2022-10-16T13:59:48.256Z,31.92
2022-10-16T14:01:18.040Z,32.42
2022-10-16T14:02:36.144Z,31.95
2022-10-16T14:03:38.698Z,32.30
2022-10-16T14:04:40.953Z,33.33
2022-10-16T14:05:50.320Z,31.98
2022-10-16T14:06:52.933Z,31.52
2022-10-16T14:07:57.037Z,31.58
2022-10-16T14:09:08.069Z,32.58
2022-10-16T14:10:36.077Z,33.17
2022-10-16T14:11:52.288Z,32.75
2022-10-16T14:13:06.193Z,32.92
2022-10-16T14:14:12.627Z,32.17
2022-10-16T14:15:20.066Z,32.15
2022-10-16T14:16:26.502Z,32.22
2022-10-16T14:17:34.541Z,32.00
2022-10-16T14:18:37.998Z,34.20
2022-10-16T14:19:40.051Z,33.03
2022-10-16T14:20:42.050Z,32.53
2022-10-16T14:21:44.390Z,33.10
2022-10-16T14:22:47.192Z,32.90
2022-10-16T14:23:49.362Z,33.58
2022-10-16T14:24:51.344Z,33.75
2022-10-16T14:25:55.132Z,32.70
2022-10-16T14:27:07.327Z,33.90
2022-10-16T14:28:23.323Z,33.08
2022-10-16T14:29:27.713Z,32.55
2022-10-16T14:30:30.478Z,33.92
2022-10-16T14:31:36.924Z,34.17
2022-10-16T14:32:42.174Z,33.97
2022-10-16T14:33:44.262Z,34.28
2022-10-16T14:34:55.127Z,34.90
2022-10-16T14:36:11.983Z,33.83
2022-10-16T14:37:28.243Z,35.30
2022-10-16T14:38:31.610Z,35.25
2022-10-16T14:39:34.199Z,36.97
2022-10-16T14:40:38.538Z,36.40
2022-10-16T14:41:47.720Z,37.03
2022-10-16T14:42:50.010Z,34.22
2022-10-16T14:43:55.754Z,35.20
2022-10-16T14:44:59.238Z,34.33
2022-10-16T14:46:12.246Z,35.40
2022-10-16T14:47:23.484Z,34.13
2022-10-16T14:48:26.282Z,35.42
2022-10-16T14:49:29.715Z,35.17
2022-10-16T14:50:31.783Z,36.55
2022-10-16T14:51:34.086Z,35.05
2022-10-16T14:52:38.753Z,33.33
2022-10-16T14:53:40.707Z,35.88
2022-10-16T14:54:42.816Z,35.38
2022-10-16T14:55:45.015Z,34.85
2022-10-16T14:56:54.278Z,36.03
2022-10-16T14:57:59.615Z,34.67
2022-10-16T14:59:04.319Z,34.53
2022-10-16T15:00:22.497Z,34.45
2022-10-16T15:01:24.717Z,34.53
2022-10-16T15:02:31.429Z,35.30
2022-10-16T15:03:36.424Z,37.78
2022-10-16T15:04:38.625Z,36.40
2022-10-16T15:05:40.888Z,35.85
2022-10-16T15:06:42.967Z,37.30
2022-10-16T15:07:44.983Z,37.88
2022-10-16T15:08:46.901Z,38.25
2022-10-16T15:09:50.644Z,37.88
2022-10-16T15:10:53.955Z,38.50
2022-10-16T15:11:55.849Z,38.40
2022-10-16T15:12:57.841Z,39.15
2022-10-16T15:13:59.812Z,41.00
2022-10-16T15:15:02.288Z,39.63
2022-10-16T15:16:04.344Z,40.30
2022-10-16T15:17:16.406Z,40.13
2022-10-16T15:18:23.431Z,43.05
2022-10-16T15:19:25.440Z,43.83
2022-10-16T15:20:35.007Z,44.45
2022-10-16T15:21:37.063Z,41.75
2022-10-16T15:22:39.166Z,42.33
2022-10-16T15:23:41.065Z,42.33
2022-10-16T15:24:43.079Z,44.13
2022-10-16T15:25:47.887Z,44.13
2022-10-16T15:26:50.451Z,40.95
2022-10-16T15:27:52.428Z,42.70
2022-10-16T15:28:54.396Z,44.42
2022-10-16T15:29:56.176Z,40.97
2022-10-16T15:30:58.920Z,43.95
2022-10-16T15:32:01.132Z,44.25
2022-10-16T15:33:03.795Z,45.08
2022-10-16T15:34:07.131Z,44.33
2022-10-16T15:35:10.272Z,45.78
2022-10-16T15:36:12.340Z,46.05
2022-10-16T15:37:15.030Z,44.53
2022-10-16T15:38:18.219Z,46.58
2022-10-16T15:39:21.804Z,47.80
2022-10-16T15:40:24.560Z,44.90
2022-10-16T15:41:27.014Z,44.78
2022-10-16T15:42:29.538Z,46.53
2022-10-16T15:43:45.702Z,47.15
2022-10-16T15:44:51.505Z,46.50